首页
METAR-TAF:

METAR-TAF

机场 :

塔拉拉, 秘鲁

纬度: 04-34S, 经度: 081-15W, 海拔: 85米

当前天气观测

该预报发布于59分钟前的00:00 UTC
温度 20°C
湿度 88%
气压 1012 hPa
能见度10公里或以上
1500米以下无云,无积雨云

METAR: SPYL 250000Z /////KT CAVOK 20/18 Q1012 RMK BIRD HAZARD RWY 17/35 PP000

时间: 19:59 (00:59 UTC)

预报

该预报发布于1小时和54分钟前的23:05 UTC
预报有效从25日的 00点(UTC)到 25日的 24点(UTC)
风速17节,风向
能见度10公里或以上
1500米以下无云,无积雨云

TAF: SPYL 242305Z 2500/2524 18017KT CAVOK TX27/2519Z TN15/2509Z

超过4000个机场的气象观测和天气预报(METAR&TAF报告)。

可查询的气象台以黄色和红色小点在地图上表示。

将鼠标移到小点上方,可查看气象台名称。

然后点击查看天气观测和预报。

如需切换地图:点击带黑十字的绿色按钮放大地图;点击带横线的绿色按钮缩小地图;或者点击绿色箭头查看邻近地区的地图。


METAR-TAF: